createdAt,value
2023-03-29T00:00:12.641Z,33.75
2023-03-29T00:03:02.910Z,34.17
2023-03-29T00:05:57.506Z,35.15
2023-03-29T00:08:46.102Z,34.45
2023-03-29T00:11:34.299Z,41.28
2023-03-29T00:14:22.131Z,35.30
2023-03-29T00:17:09.576Z,39.47
2023-03-29T00:19:57.788Z,38.97
2023-03-29T00:22:46.889Z,36.42
2023-03-29T00:25:34.634Z,37.10
2023-03-29T00:28:23.647Z,34.60
2023-03-29T00:31:14.264Z,36.72
2023-03-29T00:34:02.251Z,33.92
2023-03-29T00:36:53.092Z,36.63
2023-03-29T00:39:42.956Z,34.80
2023-03-29T00:42:30.444Z,36.78
2023-03-29T00:45:23.277Z,38.03
2023-03-29T00:48:13.752Z,33.25
2023-03-29T00:51:06.565Z,37.35
2023-03-29T00:53:57.751Z,32.97
2023-03-29T00:56:52.104Z,35.80
2023-03-29T00:59:42.203Z,38.50
2023-03-29T01:02:35.087Z,37.40
2023-03-29T01:05:27.181Z,33.85
2023-03-29T01:08:19.325Z,36.42
2023-03-29T01:11:13.872Z,38.65
2023-03-29T01:14:05.679Z,41.63
2023-03-29T01:16:53.853Z,33.78
2023-03-29T01:19:46.537Z,40.45
2023-03-29T01:22:43.995Z,36.85
2023-03-29T01:25:36.952Z,36.72
2023-03-29T01:28:31.444Z,43.10
2023-03-29T01:31:25.778Z,48.95
2023-03-29T01:34:19.905Z,47.28
2023-03-29T01:37:11.776Z,62.92
2023-03-29T01:39:59.344Z,64.68
2023-03-29T01:42:57.910Z,62.53
2023-03-29T01:45:52.479Z,59.38
2023-03-29T01:48:47.726Z,49.22
2023-03-29T01:51:39.935Z,56.88
2023-03-29T01:54:32.260Z,59.38
2023-03-29T01:57:21.812Z,58.85
2023-03-29T02:00:15.630Z,68.95
2023-03-29T02:03:09.833Z,62.78
2023-03-29T02:05:59.429Z,69.57
2023-03-29T02:08:49.860Z,69.93
2023-03-29T02:11:38.112Z,67.18
2023-03-29T02:14:26.785Z,73.25
2023-03-29T02:17:21.034Z,68.60
2023-03-29T02:20:14.829Z,79.63
2023-03-29T02:23:06.458Z,75.88
2023-03-29T02:25:55.105Z,66.78
2023-03-29T02:28:44.324Z,72.65
2023-03-29T02:31:38.752Z,61.00
2023-03-29T02:34:30.942Z,63.85
2023-03-29T02:37:22.097Z,63.72
2023-03-29T02:40:12.792Z,62.88
2023-03-29T02:43:03.241Z,65.57
2023-03-29T02:45:54.019Z,67.07
2023-03-29T02:48:42.496Z,57.75
2023-03-29T02:51:33.705Z,54.63
2023-03-29T02:54:26.118Z,58.67
2023-03-29T02:57:14.071Z,60.65
2023-03-29T03:00:08.326Z,64.35
2023-03-29T03:02:56.021Z,66.35
2023-03-29T03:05:44.542Z,61.92
2023-03-29T03:08:33.207Z,52.42
2023-03-29T03:11:24.077Z,64.50
2023-03-29T03:14:12.540Z,68.10
2023-03-29T03:17:03.908Z,55.60
2023-03-29T03:19:53.302Z,60.15
2023-03-29T03:22:42.372Z,59.42
2023-03-29T03:25:30.352Z,61.25
2023-03-29T03:28:19.994Z,62.85
2023-03-29T03:31:08.633Z,59.80
2023-03-29T03:34:22.201Z,56.20
2023-03-29T03:37:18.276Z,58.40
2023-03-29T03:40:11.758Z,47.17
2023-03-29T03:42:59.485Z,59.20
2023-03-29T03:45:48.992Z,55.85
2023-03-29T03:48:38.730Z,55.78
2023-03-29T03:51:32.210Z,62.25
2023-03-29T03:54:20.230Z,56.53
2023-03-29T03:57:28.512Z,59.85
2023-03-29T04:00:20.449Z,51.17
2023-03-29T04:03:22.911Z,56.28
2023-03-29T04:06:10.919Z,53.03
2023-03-29T04:09:22.912Z,51.40
2023-03-29T04:12:21.986Z,46.13
2023-03-29T04:15:12.279Z,44.17
2023-03-29T04:18:07.354Z,44.38
2023-03-29T04:21:03.177Z,45.47
2023-03-29T04:23:53.223Z,39.22
2023-03-29T04:26:41.541Z,42.60
2023-03-29T04:29:36.322Z,47.05
2023-03-29T04:32:36.451Z,42.45
2023-03-29T04:35:27.800Z,46.60
2023-03-29T04:38:17.085Z,39.42
2023-03-29T04:41:07.169Z,50.72
2023-03-29T04:44:15.622Z,46.10
2023-03-29T04:47:03.467Z,41.20
2023-03-29T04:50:20.573Z,50.83
2023-03-29T04:53:08.652Z,47.88
2023-03-29T04:55:59.582Z,43.13
2023-03-29T04:59:16.264Z,42.70
2023-03-29T05:02:05.131Z,47.88
2023-03-29T05:04:53.093Z,50.97
2023-03-29T05:07:41.089Z,52.33
2023-03-29T05:10:30.731Z,51.90
2023-03-29T05:13:19.990Z,49.20
2023-03-29T05:16:09.084Z,43.42
2023-03-29T05:18:56.668Z,45.28
2023-03-29T05:21:46.416Z,41.05
2023-03-29T05:24:38.375Z,47.90
2023-03-29T05:27:32.100Z,39.95
2023-03-29T05:30:29.755Z,47.17
2023-03-29T05:33:36.636Z,56.00
2023-03-29T05:36:26.328Z,56.80
2023-03-29T05:39:15.316Z,62.75
2023-03-29T05:42:04.524Z,61.80
2023-03-29T05:44:56.591Z,46.00
2023-03-29T05:47:45.721Z,47.38
2023-03-29T05:50:33.718Z,48.38
2023-03-29T05:53:23.661Z,54.85
2023-03-29T05:56:11.872Z,62.72
2023-03-29T05:58:59.736Z,54.40
2023-03-29T06:01:49.202Z,57.53
2023-03-29T06:04:41.725Z,55.15
2023-03-29T06:07:50.170Z,49.28
2023-03-29T06:11:04.447Z,50.80
2023-03-29T06:14:28.043Z,55.60
2023-03-29T06:17:26.408Z,42.95
2023-03-29T06:20:16.092Z,39.13
2023-03-29T06:23:10.137Z,50.05
2023-03-29T06:26:00.258Z,45.25
2023-03-29T06:28:50.639Z,42.03
2023-03-29T06:31:41.126Z,34.40
2023-03-29T06:34:33.232Z,34.75
2023-03-29T06:37:49.509Z,30.70
2023-03-29T06:40:45.422Z,30.00
2023-03-29T06:43:35.014Z,25.20
2023-03-29T06:46:27.797Z,25.75
2023-03-29T06:49:22.249Z,27.27
2023-03-29T06:52:33.546Z,30.02
2023-03-29T06:55:23.761Z,29.08
2023-03-29T06:58:12.395Z,23.88
2023-03-29T07:01:02.768Z,30.73
2023-03-29T07:04:05.070Z,25.60
2023-03-29T07:07:02.659Z,24.17
2023-03-29T07:09:55.830Z,24.63
2023-03-29T07:13:21.435Z,22.73
2023-03-29T07:16:12.970Z,25.92
2023-03-29T07:19:29.103Z,27.30
2023-03-29T07:22:16.554Z,23.58
2023-03-29T07:25:13.055Z,19.77
2023-03-29T07:28:00.916Z,20.73
2023-03-29T07:30:51.612Z,25.55
2023-03-29T07:33:43.034Z,19.52
2023-03-29T07:36:31.062Z,23.02
2023-03-29T07:39:18.948Z,25.70
2023-03-29T07:42:23.061Z,26.08
2023-03-29T07:45:12.134Z,28.00
2023-03-29T07:48:13.519Z,19.13
2023-03-29T07:51:21.820Z,19.73
2023-03-29T07:54:13.037Z,18.10
2023-03-29T07:57:08.623Z,18.85
2023-03-29T08:00:01.211Z,20.48
2023-03-29T08:03:02.102Z,20.90
2023-03-29T08:05:52.218Z,16.50
2023-03-29T08:08:40.934Z,17.38
2023-03-29T08:11:32.892Z,14.05
2023-03-29T08:14:24.255Z,15.65
2023-03-29T08:17:35.274Z,13.25
2023-03-29T08:20:24.390Z,10.70
2023-03-29T08:23:17.555Z,13.25
2023-03-29T08:26:05.148Z,15.18
2023-03-29T08:28:52.984Z,10.70
2023-03-29T08:31:42.996Z,11.10
2023-03-29T08:34:31.989Z,14.32
2023-03-29T08:37:32.751Z,8.85
2023-03-29T08:40:26.474Z,7.55
2023-03-29T08:43:29.120Z,8.82
2023-03-29T08:46:53.806Z,6.85
2023-03-29T08:49:50.652Z,7.95
2023-03-29T08:52:41.674Z,10.02
2023-03-29T08:55:50.088Z,10.43
2023-03-29T08:58:55.622Z,6.25
2023-03-29T09:01:48.827Z,10.73
2023-03-29T09:04:38.165Z,6.70
2023-03-29T09:07:49.428Z,6.57
2023-03-29T09:10:43.817Z,5.63
2023-03-29T09:13:40.619Z,7.95
2023-03-29T09:16:34.982Z,6.22
2023-03-29T09:19:30.120Z,6.95
2023-03-29T09:22:24.310Z,5.47
2023-03-29T09:25:21.687Z,6.28
2023-03-29T09:28:19.689Z,6.30
2023-03-29T09:31:17.978Z,4.82
2023-03-29T09:34:15.313Z,5.85
2023-03-29T09:37:27.015Z,6.68
2023-03-29T09:40:19.553Z,6.13
2023-03-29T09:43:33.383Z,4.18
2023-03-29T09:46:29.279Z,6.85
2023-03-29T09:49:33.821Z,8.95
2023-03-29T09:52:21.946Z,8.35
2023-03-29T09:55:28.598Z,4.68
2023-03-29T09:58:31.690Z,7.80
2023-03-29T10:01:20.063Z,5.13
2023-03-29T10:04:12.911Z,6.93
2023-03-29T10:07:04.404Z,9.10
2023-03-29T10:09:53.849Z,8.43
2023-03-29T10:12:42.821Z,5.07
2023-03-29T10:15:31.660Z,5.63
2023-03-29T10:18:19.429Z,6.72
2023-03-29T10:21:11.253Z,6.32
2023-03-29T10:24:00.560Z,9.55
2023-03-29T10:26:49.508Z,7.03
2023-03-29T10:29:40.305Z,7.78
2023-03-29T10:32:34.953Z,5.57
2023-03-29T10:35:26.439Z,8.15
2023-03-29T10:38:18.309Z,6.15
2023-03-29T10:41:10.402Z,4.65
2023-03-29T10:43:58.413Z,8.18
2023-03-29T10:46:46.691Z,8.30
2023-03-29T10:49:42.176Z,5.55
2023-03-29T10:52:31.519Z,10.45
2023-03-29T10:55:23.426Z,9.02
2023-03-29T10:58:24.652Z,8.20
2023-03-29T11:01:18.693Z,8.48
2023-03-29T11:04:27.535Z,8.05
2023-03-29T11:07:31.605Z,8.27
2023-03-29T11:10:34.964Z,7.32
2023-03-29T11:13:30.478Z,9.20
2023-03-29T11:16:32.421Z,6.38
2023-03-29T11:19:44.805Z,9.45
2023-03-29T11:22:45.128Z,8.43
2023-03-29T11:25:45.784Z,5.60
2023-03-29T11:28:42.366Z,6.43
2023-03-29T11:31:39.029Z,6.60
2023-03-29T11:34:32.927Z,10.25
2023-03-29T11:37:30.257Z,8.30
2023-03-29T11:40:36.362Z,8.48
2023-03-29T11:43:32.197Z,5.47
2023-03-29T11:46:25.384Z,5.70
2023-03-29T11:49:19.577Z,8.30
2023-03-29T11:52:12.001Z,5.72
2023-03-29T11:55:04.033Z,6.95
2023-03-29T11:57:57.011Z,8.07
2023-03-29T12:00:49.235Z,6.32
2023-03-29T12:03:44.764Z,5.95
2023-03-29T12:06:42.141Z,9.43
2023-03-29T12:09:35.474Z,6.75
2023-03-29T12:12:28.017Z,5.40
2023-03-29T12:15:20.561Z,6.55
2023-03-29T12:18:19.835Z,7.00
2023-03-29T12:21:13.483Z,5.97
2023-03-29T12:24:02.551Z,4.72
2023-03-29T12:27:20.839Z,5.47
2023-03-29T12:30:29.679Z,6.10
2023-03-29T12:33:39.174Z,4.88
2023-03-29T12:37:19.323Z,5.28
2023-03-29T12:40:14.320Z,5.57
2023-03-29T12:43:43.439Z,6.72
2023-03-29T12:47:00.540Z,5.20
2023-03-29T12:49:56.228Z,7.80
2023-03-29T12:52:44.142Z,7.40
2023-03-29T12:55:36.199Z,5.28
2023-03-29T12:58:38.084Z,5.50
2023-03-29T13:01:31.627Z,6.80
2023-03-29T13:04:20.989Z,8.05
2023-03-29T13:07:16.560Z,4.50
2023-03-29T13:10:08.918Z,6.53
2023-03-29T13:12:57.915Z,5.47
2023-03-29T13:15:46.687Z,5.95
2023-03-29T13:18:44.138Z,6.95
2023-03-29T13:21:40.514Z,4.70
2023-03-29T13:24:45.578Z,4.95
2023-03-29T13:27:43.274Z,6.95
2023-03-29T13:30:45.650Z,8.30
2023-03-29T13:34:03.904Z,5.28
2023-03-29T13:37:02.748Z,5.57
2023-03-29T13:39:53.794Z,5.32
2023-03-29T13:42:42.393Z,5.43
2023-03-29T13:45:31.567Z,6.05
2023-03-29T13:48:27.326Z,6.63
2023-03-29T13:51:34.853Z,5.20
2023-03-29T13:54:29.405Z,4.18
2023-03-29T13:57:21.615Z,3.85
2023-03-29T14:00:18.345Z,5.90
2023-03-29T14:03:09.960Z,5.13
2023-03-29T14:06:01.836Z,7.25
2023-03-29T14:08:52.790Z,17.35
2023-03-29T14:11:45.750Z,7.90
2023-03-29T14:14:37.174Z,5.60
2023-03-29T14:17:26.832Z,4.43
2023-03-29T14:20:16.834Z,4.18
2023-03-29T14:23:13.329Z,3.92
2023-03-29T14:26:09.241Z,4.18
2023-03-29T14:29:01.485Z,4.32
2023-03-29T14:31:51.265Z,4.97
2023-03-29T14:34:39.688Z,5.15
2023-03-29T14:37:29.478Z,6.63
2023-03-29T14:40:20.841Z,5.30
2023-03-29T14:43:11.490Z,7.57
2023-03-29T14:45:59.431Z,6.05
2023-03-29T14:48:49.295Z,6.28
2023-03-29T14:51:37.415Z,4.70
2023-03-29T14:54:28.107Z,5.07
2023-03-29T14:57:18.757Z,6.43
2023-03-29T15:00:22.490Z,13.75
2023-03-29T15:03:16.300Z,3.63
2023-03-29T15:06:06.693Z,4.60
2023-03-29T15:09:05.104Z,6.60
2023-03-29T15:11:55.340Z,5.45
2023-03-29T15:14:43.631Z,4.63
2023-03-29T15:17:47.550Z,4.85
2023-03-29T15:20:40.861Z,5.35
2023-03-29T15:23:38.672Z,4.65
2023-03-29T15:26:31.109Z,4.55
2023-03-29T15:29:23.781Z,7.00
2023-03-29T15:32:20.905Z,5.53
2023-03-29T15:35:11.030Z,4.78
2023-03-29T15:37:58.771Z,5.88
2023-03-29T15:40:48.810Z,5.22
2023-03-29T15:43:37.243Z,5.90
2023-03-29T15:46:25.022Z,5.45
2023-03-29T15:49:13.169Z,5.35
2023-03-29T15:52:00.905Z,4.68
2023-03-29T15:54:48.562Z,8.18
2023-03-29T15:57:38.061Z,6.43
2023-03-29T16:00:27.132Z,3.38
2023-03-29T16:03:16.529Z,6.55
2023-03-29T16:06:05.152Z,4.47
2023-03-29T16:08:54.484Z,5.07
2023-03-29T16:11:44.800Z,4.35
2023-03-29T16:14:34.907Z,7.22
2023-03-29T16:17:22.329Z,7.53
2023-03-29T16:20:14.975Z,7.55
2023-03-29T16:23:09.171Z,6.28
2023-03-29T16:25:59.572Z,7.13
2023-03-29T16:28:47.376Z,4.68
2023-03-29T16:31:37.055Z,6.05
2023-03-29T16:34:25.261Z,5.43
2023-03-29T16:37:13.642Z,5.95
2023-03-29T16:40:01.807Z,7.30
2023-03-29T16:42:49.942Z,6.60
2023-03-29T16:45:38.213Z,6.68
2023-03-29T16:48:27.354Z,5.55
2023-03-29T16:51:15.120Z,6.05
2023-03-29T16:54:02.588Z,6.43
2023-03-29T16:56:50.828Z,5.85
2023-03-29T16:59:38.598Z,5.97
2023-03-29T17:02:26.383Z,4.72
2023-03-29T17:05:15.516Z,7.97
2023-03-29T17:08:03.194Z,5.68
2023-03-29T17:10:54.118Z,7.15
2023-03-29T17:13:42.047Z,5.05
2023-03-29T17:16:31.132Z,10.52
2023-03-29T17:19:18.986Z,6.82
2023-03-29T17:22:08.480Z,4.45
2023-03-29T17:24:56.055Z,7.60
2023-03-29T17:27:43.694Z,9.05
2023-03-29T17:30:31.482Z,7.07
2023-03-29T17:33:22.790Z,6.53
2023-03-29T17:36:12.770Z,6.35
2023-03-29T17:39:02.846Z,6.43
2023-03-29T17:41:51.034Z,5.55
2023-03-29T17:44:38.900Z,7.30
2023-03-29T17:47:26.654Z,6.97
2023-03-29T17:50:14.987Z,6.63
2023-03-29T17:53:02.759Z,9.10
2023-03-29T17:55:52.051Z,7.07
2023-03-29T17:58:39.919Z,5.57
2023-03-29T18:01:27.673Z,9.07
2023-03-29T18:04:15.756Z,7.05
2023-03-29T18:07:03.169Z,7.88
2023-03-29T18:09:52.711Z,8.73
2023-03-29T18:12:42.215Z,7.60
2023-03-29T18:15:30.055Z,8.48
2023-03-29T18:18:17.683Z,8.25
2023-03-29T18:21:07.009Z,6.30
2023-03-29T18:23:56.659Z,6.63
2023-03-29T18:26:45.015Z,7.97
2023-03-29T18:29:34.776Z,7.82
2023-03-29T18:32:22.582Z,7.60
2023-03-29T18:35:12.177Z,9.13
2023-03-29T18:38:00.090Z,7.05
2023-03-29T18:40:48.289Z,6.13
2023-03-29T18:43:37.247Z,8.45
2023-03-29T18:46:30.479Z,7.05
2023-03-29T18:49:19.148Z,11.52
2023-03-29T18:52:07.341Z,13.75
2023-03-29T18:54:55.029Z,9.93
2023-03-29T18:57:43.113Z,8.95
2023-03-29T19:00:31.026Z,9.77
2023-03-29T19:03:20.328Z,13.43
2023-03-29T19:06:08.320Z,8.63
2023-03-29T19:08:58.409Z,7.65
2023-03-29T19:11:47.934Z,7.38
2023-03-29T19:14:35.834Z,8.18
2023-03-29T19:17:23.763Z,6.65
2023-03-29T19:20:14.050Z,8.68
2023-03-29T19:23:02.354Z,7.43
2023-03-29T19:25:54.183Z,8.13
2023-03-29T19:28:41.918Z,7.70
2023-03-29T19:31:30.001Z,7.03
2023-03-29T19:34:19.876Z,9.93
2023-03-29T19:37:09.259Z,10.13
2023-03-29T19:39:57.259Z,9.07
2023-03-29T19:42:45.278Z,9.02
2023-03-29T19:45:33.376Z,11.88
2023-03-29T19:48:23.048Z,11.38
2023-03-29T19:51:12.231Z,14.48
2023-03-29T19:54:02.798Z,15.80
2023-03-29T19:56:52.877Z,10.82
2023-03-29T19:59:41.644Z,9.05
2023-03-29T20:02:29.484Z,8.73
2023-03-29T20:05:17.157Z,10.80
2023-03-29T20:08:04.716Z,11.25
2023-03-29T20:10:59.800Z,10.73
2023-03-29T20:13:47.185Z,10.27
2023-03-29T20:16:35.304Z,8.75
2023-03-29T20:19:24.867Z,11.13
2023-03-29T20:22:13.166Z,12.52
2023-03-29T20:25:00.683Z,10.85
2023-03-29T20:27:51.641Z,9.77
2023-03-29T20:30:39.756Z,8.63
2023-03-29T20:33:27.630Z,9.50
2023-03-29T20:36:18.608Z,8.98
2023-03-29T20:39:07.895Z,9.25
2023-03-29T20:41:55.740Z,8.23
2023-03-29T20:44:50.727Z,9.05
2023-03-29T20:47:42.565Z,8.95
2023-03-29T20:50:30.836Z,9.38
2023-03-29T20:53:18.496Z,8.55
2023-03-29T20:56:07.312Z,10.77
2023-03-29T20:58:55.915Z,10.93
2023-03-29T21:01:45.127Z,8.40
2023-03-29T21:04:33.050Z,9.13
2023-03-29T21:07:21.433Z,9.70
2023-03-29T21:10:10.042Z,15.18
2023-03-29T21:13:00.512Z,14.60
2023-03-29T21:15:48.473Z,15.50
2023-03-29T21:18:38.772Z,13.98
2023-03-29T21:21:26.277Z,13.43
2023-03-29T21:24:14.660Z,15.38
2023-03-29T21:27:02.556Z,12.75
2023-03-29T21:29:50.519Z,13.77
2023-03-29T21:32:38.191Z,11.93
2023-03-29T21:35:28.158Z,12.50
2023-03-29T21:38:16.360Z,14.00
2023-03-29T21:41:04.403Z,13.95
2023-03-29T21:43:52.136Z,14.82
2023-03-29T21:46:40.061Z,12.30
2023-03-29T21:49:28.064Z,13.02
2023-03-29T21:52:17.117Z,10.55
2023-03-29T21:55:05.473Z,14.80
2023-03-29T21:57:53.738Z,8.45
2023-03-29T22:00:41.777Z,10.38
2023-03-29T22:03:29.603Z,15.68
2023-03-29T22:06:17.236Z,13.20
2023-03-29T22:09:06.158Z,13.05
2023-03-29T22:11:54.005Z,12.10
2023-03-29T22:14:41.491Z,16.45
2023-03-29T22:17:28.941Z,13.35
2023-03-29T22:20:18.587Z,13.38
2023-03-29T22:23:06.271Z,13.57
2023-03-29T22:25:55.124Z,12.80
2023-03-29T22:28:43.516Z,14.63
2023-03-29T22:31:32.681Z,17.67
2023-03-29T22:34:20.731Z,20.30
2023-03-29T22:37:08.410Z,19.23
2023-03-29T22:39:55.782Z,18.05
2023-03-29T22:42:44.539Z,18.38
2023-03-29T22:45:32.383Z,21.08
2023-03-29T22:48:20.254Z,20.20
2023-03-29T22:51:07.851Z,19.58
2023-03-29T22:53:55.792Z,20.50
2023-03-29T22:56:43.774Z,20.75
2023-03-29T22:59:33.204Z,20.08
2023-03-29T23:02:21.011Z,23.02
2023-03-29T23:05:09.459Z,18.67
2023-03-29T23:07:57.276Z,20.67
2023-03-29T23:10:46.395Z,23.25
2023-03-29T23:13:35.207Z,24.90
2023-03-29T23:16:25.496Z,17.15
2023-03-29T23:19:13.307Z,18.38
2023-03-29T23:22:00.963Z,22.40
2023-03-29T23:24:48.534Z,17.30
2023-03-29T23:27:36.312Z,16.05
2023-03-29T23:30:23.863Z,17.52
2023-03-29T23:33:14.618Z,20.02
2023-03-29T23:36:03.833Z,20.77
2023-03-29T23:38:52.552Z,17.02
2023-03-29T23:41:41.267Z,17.33
2023-03-29T23:44:29.548Z,18.23
2023-03-29T23:47:16.888Z,14.60
2023-03-29T23:50:07.415Z,12.32
2023-03-29T23:52:55.799Z,17.98
2023-03-29T23:55:43.516Z,21.35
2023-03-29T23:58:31.807Z,15.63
